Time;durP1;ratioP1;P1;durP2;ratioP2;P2;SDS_P1;SDS_P2;PMS_P1;PMS_P2;Temp;Humidity;BMP_temperature;BMP_pressure;BME280_temperature;BME280_humidity;BME280_pressure;Samples;Min_cycle;Max_cycle;Signal;HPM_P1;HPM_P2
2022/07/20 00:11:24;;;;;;;39.40;17.10;;;;;;;18.88;94.02;100896.16;654117;1287;139546;-85
2022/07/20 00:26:28;;;;;;;15.70;9.30;;;;;;;18.73;95.72;100891.10;652574;1289;138982;-86
2022/07/20 00:41:31;;;;;;;13.60;8.90;;;;;;;18.52;96.46;100886.39;651374;1288;138467;-86
2022/07/20 00:56:35;;;;;;;14.10;9.50;;;;;;;18.37;97.48;100885.77;651783;1289;138918;-85
2022/07/20 01:11:39;;;;;;;14.40;10.10;;;;;;;18.18;98.39;100887.18;651958;1289;139539;-86
2022/07/20 01:26:45;;;;;;;16.10;9.90;;;;;;;17.85;98.56;100895.89;651817;1289;139758;-86
2022/07/20 01:41:52;;;;;;;14.70;10.50;;;;;;;17.53;99.52;100887.48;652096;1289;139835;-86
2022/07/20 01:56:56;;;;;;;13.30;9.90;;;;;;;17.53;99.79;100890.14;651765;1289;139949;-86
2022/07/20 02:11:59;;;;;;;14.60;10.20;;;;;;;17.34;99.89;100891.23;652852;1289;139547;-84
2022/07/20 02:27:02;;;;;;;15.00;9.90;;;;;;;17.12;100.00;100887.97;651701;1289;140225;-86
2022/07/20 02:42:05;;;;;;;14.60;10.50;;;;;;;17.17;100.00;100897.13;653478;1289;140594;-87
2022/07/20 02:57:08;;;;;;;15.90;10.80;;;;;;;17.03;100.00;100897.79;653706;1289;140035;-86
2022/07/20 03:12:12;;;;;;;16.80;10.20;;;;;;;16.92;100.00;100912.11;656761;1289;140036;-87
2022/07/20 03:27:15;;;;;;;16.50;10.40;;;;;;;16.99;100.00;100924.69;656729;1289;139696;-86
2022/07/20 03:42:18;;;;;;;13.20;9.40;;;;;;;17.07;100.00;100923.23;652478;1288;140450;-86
2022/07/20 03:57:21;;;;;;;16.30;8.90;;;;;;;17.28;100.00;100924.48;652290;1289;139981;-85
2022/07/20 04:12:25;;;;;;;17.90;11.20;;;;;;;17.49;100.00;100941.10;654627;1285;140136;-85
2022/07/20 04:27:29;;;;;;;15.40;11.00;;;;;;;17.76;100.00;100964.18;654923;1285;139809;-87
2022/07/20 04:42:33;;;;;;;19.30;10.70;;;;;;;18.17;100.00;100989.60;654464;1285;141189;-86
2022/07/20 04:57:36;;;;;;;22.10;10.70;;;;;;;18.51;100.00;101003.05;651401;1285;139238;-88
2022/07/20 05:12:39;;;;;;;18.60;10.90;;;;;;;19.16;100.00;101016.38;654391;1284;139969;-88
2022/07/20 05:27:43;;;;;;;22.40;12.20;;;;;;;19.72;100.00;101024.23;652010;1286;140994;-86
2022/07/20 05:42:46;;;;;;;16.10;9.20;;;;;;;20.41;99.01;101033.83;651936;1283;139647;-88
2022/07/20 05:57:49;;;;;;;12.40;7.40;;;;;;;21.12;95.42;101034.04;651584;1286;139164;-87
2022/07/20 06:12:55;;;;;;;12.20;8.60;;;;;;;21.71;91.71;101037.77;651844;1286;139214;-87
2022/07/20 06:28:00;;;;;;;10.90;7.50;;;;;;;22.27;89.58;101038.06;652599;1283;138943;-83
2022/07/20 06:43:04;;;;;;;8.10;6.80;;;;;;;22.91;88.57;101039.93;654800;1284;138920;-83
2022/07/20 06:58:08;;;;;;;10.00;7.40;;;;;;;23.68;87.13;101046.39;655873;1283;138535;-83
2022/07/20 07:13:11;;;;;;;15.40;9.70;;;;;;;24.34;85.27;101041.71;655715;1281;138880;-81
2022/07/20 07:28:15;;;;;;;11.50;7.90;;;;;;;25.34;83.17;101030.38;657620;1283;139306;-81
2022/07/20 07:43:19;;;;;;;13.70;8.20;;;;;;;26.24;80.17;101033.09;656631;1283;139746;-82
2022/07/20 07:58:22;;;;;;;13.70;7.00;;;;;;;27.22;77.56;101028.21;655163;1283;140214;-82
2022/07/20 08:13:27;;;;;;;5.90;3.80;;;;;;;28.61;73.97;101015.97;657248;1283;138513;-82
2022/07/20 08:28:30;;;;;;;7.70;5.20;;;;;;;29.81;67.31;101010.91;655262;1283;139826;-82
2022/07/20 08:43:34;;;;;;;7.00;4.10;;;;;;;30.18;63.27;101011.52;653190;1286;139837;-82
2022/07/20 08:58:38;;;;;;;5.30;3.60;;;;;;;30.90;58.41;101009.37;653908;1286;138164;-82
2022/07/20 09:13:41;;;;;;;4.50;2.30;;;;;;;31.42;57.13;101008.73;651614;1286;138402;-82
2022/07/20 09:28:49;;;;;;;3.80;2.00;;;;;;;31.86;52.79;101012.73;652643;1286;138418;-82
2022/07/20 09:43:54;;;;;;;5.00;2.60;;;;;;;32.55;51.72;101006.44;651521;1286;138625;-85
2022/07/20 09:59:04;;;;;;;3.60;2.60;;;;;;;33.74;51.23;101009.49;651467;1286;138540;-83
2022/07/20 10:14:09;;;;;;;3.90;2.70;;;;;;;33.88;48.87;100996.05;652031;1286;139523;-83
2022/07/20 10:29:30;;;;;;;4.00;2.20;;;;;;;34.40;48.62;100987.23;651596;1286;140085;-83
2022/07/20 10:44:33;;;;;;;3.60;2.30;;;;;;;35.19;46.96;100977.41;651319;1286;139349;-83
2022/07/20 10:59:37;;;;;;;2.30;1.90;;;;;;;35.59;47.29;100979.33;651006;1286;138947;-83
2022/07/20 11:14:54;;;;;;;4.20;2.20;;;;;;;36.12;46.97;100982.63;656496;1286;351631;-83
2022/07/20 11:29:58;;;;;;;3.80;2.70;;;;;;;36.76;46.19;100983.25;660418;1285;138497;-83
2022/07/20 11:45:02;;;;;;;3.30;2.10;;;;;;;37.08;45.73;100981.91;652771;1286;138196;-83
2022/07/20 12:00:07;;;;;;;3.00;2.60;;;;;;;37.68;45.78;100978.73;653036;1286;138908;-83
2022/07/20 12:15:15;;;;;;;3.90;2.40;;;;;;;37.79;44.75;100963.15;651087;1286;138861;-83
2022/07/20 12:30:28;;;;;;;3.70;2.50;;;;;;;38.16;44.42;100966.23;650992;1286;138793;-82
2022/07/20 12:45:33;;;;;;;3.60;2.70;;;;;;;38.16;43.47;100966.41;651163;1287;138383;-82
2022/07/20 13:00:37;;;;;;;5.50;2.40;;;;;;;37.49;43.17;100960.99;651743;1286;138008;-83
2022/07/20 13:15:41;;;;;;;4.20;2.50;;;;;;;38.08;44.09;100948.83;652237;1286;139776;-83
2022/07/20 13:30:45;;;;;;;4.90;3.00;;;;;;;37.90;43.12;100934.10;651582;1286;138601;-82
2022/07/20 13:45:49;;;;;;;3.80;3.00;;;;;;;37.77;42.45;100923.30;651423;1286;138087;-82
2022/07/20 14:00:52;;;;;;;4.10;3.10;;;;;;;38.07;43.86;100915.14;651416;1286;139812;-83
2022/07/20 14:15:56;;;;;;;8.00;3.50;;;;;;;38.26;43.72;100913.92;652916;1287;139580;-83
2022/07/20 14:31:00;;;;;;;4.20;3.20;;;;;;;38.19;43.44;100916.91;653514;1286;139903;-84
2022/07/20 14:46:04;;;;;;;4.20;2.50;;;;;;;37.74;42.81;100907.42;652781;1287;138779;-84
2022/07/20 15:01:08;;;;;;;5.60;3.00;;;;;;;38.05;43.23;100895.70;653695;1286;139412;-84
2022/07/20 15:16:13;;;;;;;2.60;2.10;;;;;;;37.97;43.23;100879.65;653509;1287;138573;-83
2022/07/20 15:31:16;;;;;;;6.20;2.10;;;;;;;37.75;43.17;100871.11;652369;1287;138110;-83
2022/07/20 15:46:20;;;;;;;5.30;2.80;;;;;;;37.28;44.23;100859.89;653341;1286;138643;-81
2022/07/20 16:01:24;;;;;;;5.30;3.30;;;;;;;36.51;44.82;100850.89;654226;1286;138294;-83
2022/07/20 16:16:27;;;;;;;5.90;3.70;;;;;;;36.38;44.96;100839.34;651951;1286;140279;-83
2022/07/20 16:31:30;;;;;;;9.80;3.20;;;;;;;35.96;44.92;100832.64;652819;1286;138658;-85
2022/07/20 16:46:36;;;;;;;4.30;2.20;;;;;;;35.52;46.15;100824.27;654088;1286;138528;-83
2022/07/20 17:01:42;;;;;;;4.00;3.30;;;;;;;35.10;46.94;100829.64;653370;1286;140162;-85
2022/07/20 17:16:46;;;;;;;3.70;2.60;;;;;;;34.57;47.99;100824.95;651459;1286;138715;-85
2022/07/20 17:31:50;;;;;;;3.00;2.60;;;;;;;33.84;49.34;100811.46;652536;1286;139041;-86
2022/07/20 17:46:53;;;;;;;5.90;2.40;;;;;;;33.19;50.33;100794.34;652575;1286;138496;-83
2022/07/20 18:01:57;;;;;;;8.60;6.60;;;;;;;32.38;52.25;100791.23;651397;1286;138085;-83
2022/07/20 18:17:01;;;;;;;8.50;5.30;;;;;;;31.53;53.92;100795.10;651348;1286;139432;-84
2022/07/20 18:32:05;;;;;;;8.70;3.90;;;;;;;30.70;55.50;100799.87;651582;1286;137966;-83
2022/07/20 18:47:09;;;;;;;11.60;4.60;;;;;;;29.99;57.24;100803.84;651302;1286;137944;-83
2022/07/20 19:02:13;;;;;;;10.50;6.50;;;;;;;29.33;58.84;100812.30;652114;1286;138447;-83
2022/07/20 19:17:16;;;;;;;6.30;4.00;;;;;;;28.60;60.10;100817.51;651935;1286;138192;-83
2022/07/20 19:32:19;;;;;;;16.90;7.70;;;;;;;27.97;61.62;100823.34;651318;1287;138595;-83
2022/07/20 19:47:25;;;;;;;7.80;5.50;;;;;;;27.34;64.01;100826.72;652697;1286;138492;-84
2022/07/20 20:02:29;;;;;;;29.50;15.30;;;;;;;26.93;65.50;100831.23;651657;1285;138641;-84
2022/07/20 20:17:32;;;;;;;19.60;11.60;;;;;;;26.48;67.34;100825.44;656638;1283;138676;-85
2022/07/20 20:32:36;;;;;;;13.70;7.80;;;;;;;25.82;69.14;100813.94;655076;1283;138913;-83
2022/07/20 20:47:39;;;;;;;15.40;8.80;;;;;;;25.24;70.96;100813.54;656577;1283;138249;-83
2022/07/20 21:02:43;;;;;;;19.20;10.80;;;;;;;24.88;73.12;100815.88;656680;1282;138288;-83
2022/07/20 21:17:47;;;;;;;11.90;7.60;;;;;;;24.56;75.31;100807.27;655957;1283;138342;-83
2022/07/20 21:32:50;;;;;;;37.50;18.60;;;;;;;24.12;77.55;100807.42;655963;1283;138396;-83
2022/07/20 21:47:53;;;;;;;30.40;12.90;;;;;;;23.72;79.38;100815.98;658716;1283;138295;-83
2022/07/20 22:02:56;;;;;;;18.00;9.40;;;;;;;23.42;81.44;100808.54;656123;1283;138337;-83
2022/07/20 22:17:59;;;;;;;8.90;6.30;;;;;;;23.30;82.61;100807.31;655499;1283;138178;-83
2022/07/20 22:33:04;;;;;;;7.50;5.80;;;;;;;23.09;82.06;100795.06;655917;1284;138630;-83
2022/07/20 22:48:07;;;;;;;12.60;6.60;;;;;;;23.06;83.94;100776.55;655480;1284;138234;-83
2022/07/20 23:03:11;;;;;;;8.80;6.50;;;;;;;22.87;85.78;100786.21;655718;1283;138848;-83
2022/07/20 23:18:14;;;;;;;14.00;5.90;;;;;;;22.71;86.92;100793.34;655671;1282;407379;-83
2022/07/20 23:33:18;;;;;;;11.50;7.00;;;;;;;22.74;87.57;100808.44;656240;1283;138970;-82
2022/07/20 23:48:21;;;;;;;8.90;6.60;;;;;;;22.42;88.05;100800.05;656148;1283;139508;-83
